ADDS METAR Data INFO
IDs: Format: Raw Decoded Include TAF

Data at: 2312 UTC 16 Jan 2018

KOKM 162255Z AUTO 35007KT 10SM CLR M07/M17 A3074 RMK AO2 T10751174
KOKM 162235Z AUTO 35007KT 10SM CLR M07/M17 A3074 RMK AO2 T10701174
KOKM 162215Z AUTO 35010KT 10SM CLR M07/M18 A3074 RMK AO2 T10701181
KOKM 162155Z AUTO 35008KT 10SM CLR M07/M18 A3074 RMK AO2 T10701180
KOKM 162135Z AUTO 36010KT 10SM CLR M07/M18 A3075 RMK AO2 T10691182
KOKM 162115Z AUTO 35004KT 10SM CLR M07/M18 A3074 RMK AO2 T10711185
KOKM 162055Z AUTO 01012G15KT 10SM CLR M07/M18 A3074 RMK AO2 T10711183
KOKM 162035Z AUTO 35011G16KT 320V020 10SM CLR M07/M18 A3075 RMK AO2 T10701183
KOKM 162015Z AUTO 35008G15KT 10SM CLR M07/M19 A3076 RMK AO2 T10751186
KOKM 161955Z AUTO 34011G16KT 10SM CLR M07/M19 A3076 RMK AO2 T10751188
KOKM 161935Z AUTO 35010G16KT 10SM CLR M08/M19 A3076 RMK AO2 T10781189
KOKM 161915Z AUTO 36012KT 10SM CLR M08/M19 A3077 RMK AO2 T10821191
KOKM 161855Z AUTO 33007G14KT 10SM CLR M09/M19 A3079 RMK AO2 T10871192
KOKM 161835Z AUTO 34013G19KT 10SM SCT038 M09/M19 A3080 RMK AO2 T10921191
KOKM 161815Z AUTO 36010G16KT 10SM SCT034 SCT041 M09/M19 A3081 RMK AO2 T10951190
KOKM 161755Z AUTO 33009KT 10SM SCT034 SCT041 M09/M19 A3083 RMK AO2 6//// T10941186 11094 21143
KOKM 161735Z AUTO 36010G15KT 10SM BKN034 M10/M19 A3084 RMK AO2 T11021190
KOKM 161715Z AUTO 36008KT 10SM BKN034 M11/M19 A3085 RMK AO2 T11091195
KOKM 161655Z AUTO 35010KT 10SM SCT034 M11/M19 A3086 RMK AO2 T11061194
KOKM 161635Z AUTO 35009KT 10SM CLR M11/M20 A3086 RMK AO2 T11121196
KOKM 161615Z AUTO 32007G15KT 10SM SCT031 M12/M20 A3086 RMK AO2 T11191199
KOKM 161555Z AUTO 34007KT 10SM BKN031 M12/M19 A3086 RMK AO2 T11171194
KOKM 161535Z AUTO 34009G16KT 10SM BKN031 M12/M19 A3086 RMK AO2 T11241195
KOKM 161515Z AUTO 35011KT 10SM CLR M13/M20 A3086 RMK AO2 T11261197
KOKM 161455Z AUTO 34009KT 10SM CLR M13/M20 A3085 RMK AO2 T11311197
KOKM 161435Z AUTO 34008KT 10SM CLR M13/M20 A3085 RMK AO2 T11341200
KOKM 161415Z AUTO 34007KT 10SM CLR M14/M20 A3084 RMK AO2 T11381201
KOKM 161355Z AUTO 34009KT 10SM CLR M14/M20 A3083 RMK AO2 T11411202
KOKM 161335Z AUTO 35009G14KT 10SM CLR M14/M20 A3082 RMK AO2 T11431203
KOKM 161315Z AUTO 34008KT 10SM CLR M14/M20 A3082 RMK AO2 T11431203
KOKM 161255Z AUTO 35006KT 10SM CLR M14/M20 A3082 RMK AO2 T11411202
KOKM 161235Z AUTO 35008KT 10SM CLR M14/M20 A3081 RMK AO2 T11401200
KOKM 161215Z AUTO 35008KT 10SM CLR M14/M20 A3081 RMK AO2 T11381200
KOKM 161155Z AUTO 34010G15KT 10SM CLR M14/M20 A3080 RMK AO2 7//// T11381200 11100 21138
KOKM 161135Z AUTO 34010G16KT 10SM CLR M13/M20 A3080 RMK AO2 T11351202
KOKM 161115Z AUTO 34011G20KT 10SM CLR M13/M20 A3079 RMK AO2 T11331201
KOKM 161055Z AUTO 34008KT 10SM CLR M13/M19 A3078 RMK AO2 T11321190
KOKM 161035Z AUTO 35009G14KT 10SM CLR M13/M18 A3078 RMK AO2 T11301185
KOKM 161015Z AUTO 34008G15KT 10SM CLR M13/M18 A3077 RMK AO2 T11301185
KOKM 160955Z AUTO 33008KT 10SM CLR M13/M18 A3078 RMK AO2 T11301185
KOKM 160935Z AUTO 34006KT 10SM CLR M13/M18 A3078 RMK AO2 T11301184
KOKM 160915Z AUTO 35008KT 10SM CLR M13/M18 A3077 RMK AO2 T11281183
KOKM 160855Z AUTO 35009KT 10SM CLR M12/M18 A3077 RMK AO2 T11251185
KOKM 160835Z AUTO 34010G14KT 10SM CLR M12/M18 A3077 RMK AO2 T11241185
KOKM 160815Z AUTO 35006KT 10SM CLR M12/M18 A3077 RMK AO2 T11211185
KOKM 160755Z AUTO 36011G20KT 10SM CLR M12/M19 A3076 RMK AO2 T11171187
KOKM 160735Z AUTO 35018G23KT 10SM CLR M11/M19 A3075 RMK AO2 T11151190
KOKM 160715Z AUTO 35012G23KT 10SM CLR M11/M19 A3075 RMK AO2 T11111187
KOKM 160655Z AUTO 35015G19KT 10SM CLR M11/M18 A3074 RMK AO2 T11091181
KOKM 160635Z AUTO 36017G24KT 10SM CLR M11/M18 A3074 RMK AO2 T11071182
KOKM 160615Z AUTO 34017G27KT 10SM CLR M10/M18 A3074 RMK AO2 T11041181
KOKM 160555Z AUTO 35017G23KT 10SM CLR M10/M17 A3074 RMK AO2 T11001172 11066 21100 400361100
KOKM 160535Z AUTO 35019G23KT 10SM CLR M09/M17 A3074 RMK AO2 T10951170
KOKM 160515Z AUTO 35012KT 10SM CLR M09/M16 A3074 RMK AO2 T10911165
KOKM 160455Z AUTO 34011G20KT 10SM SCT032 M09/M16 A3074 RMK AO2 T10901163
KOKM 160435Z AUTO 35013G20KT 10SM SCT030 M09/M16 A3073 RMK AO2 T10871157
KOKM 160415Z AUTO 35014G21KT 10SM CLR M09/M16 A3073 RMK AO2 T10861157
KOKM 160355Z AUTO 35012G16KT 10SM CLR M09/M15 A3072 RMK AO2 T10871147
KOKM 160335Z AUTO 36012G22KT 10SM SCT031 M09/M15 A3071 RMK AO2 T10861152
KOKM 160315Z AUTO 35012KT 10SM BKN029 BKN034 M08/M15 A3070 RMK AO2 T10851150
KOKM 160255Z AUTO 35012G21KT 10SM OVC029 M08/M14 A3070 RMK AO2 T10801143
KOKM 160235Z AUTO 36012G19KT 10SM BKN029 OVC110 M07/M13 A3068 RMK AO2 T10731134
KOKM 160215Z AUTO 36010G18KT 10SM OVC110 M07/M14 A3067 RMK AO2 T10721139 PNO
KOKM 160155Z AUTO 36010G20KT 10SM OVC110 M07/M15 A3067 RMK AO2 T10711146
KOKM 160135Z AUTO 35015G26KT 10SM SCT031 OVC110 M07/M15 A3065 RMK AO2 T10701153
KOKM 160115Z AUTO 36011KT 10SM OVC100 M07/M13 A3064 RMK AO2 T10671135
KOKM 160055Z AUTO 35014KT 10SM OVC090 M07/M14 A3064 RMK AO2 T10671136
KOKM 160035Z AUTO 35013KT 10SM OVC090 M07/M14 A3063 RMK AO2 T10671143
KOKM 160015Z AUTO 34012G18KT 10SM OVC090 M07/M14 A3062 RMK AO2 T10661144
KOKM 152355Z AUTO 36010KT 10SM OVC090 M07/M14 A3061 RMK AO2 6//// T10661142 10003 21066
KOKM 152335Z AUTO 01011KT 10SM OVC090 M06/M14 A3060 RMK AO2 T10651142 TSNO
KOKM 152315Z AUTO 01013KT 10SM OVC080 M06/M15 A3060 RMK AO2 T10651146
KOKM 152255Z AUTO 01012KT 10SM OVC080 M06/M15 A3059 RMK AO2 T10621151
KOKM 152235Z AUTO 01013KT 10SM OVC080 M06/M15 A3059 RMK AO2 T10581152
KOKM 152215Z AUTO 36015KT 10SM OVC080 M06/M15 A3058 RMK AO2 T10571151
KOKM 152155Z AUTO 36018G24KT 10SM OVC080 M05/M12 A3056 RMK AO2 T10501121
KOKM 152135Z AUTO 01015KT 10SM OVC070 M04/M11 A3054 RMK AO2 T10451113
KOKM 152115Z AUTO 36015G21KT 10SM SCT023 SCT027 OVC070 M04/M12 A3053 RMK AO2 T10411119
KOKM 152055Z AUTO 36014G21KT 10SM OVC023 M04/M10 A3052 RMK AO2 6//// T10401099
KOKM 152035Z AUTO 02017G21KT 10SM BKN025 BKN030 OVC065 M03/M11 A3051 RMK AO2 T10311108
KOKM 152015Z AUTO 01016G21KT 10SM SCT027 OVC065 M02/M08 A3050 RMK AO2 T10231085
KOKM 151955Z AUTO 01018G21KT 10SM OVC065 M01/M08 A3049 RMK AO2 T10151081
KOKM 151935Z AUTO 01014G25KT 10SM OVC065 M01/M08 A3048 RMK AO2 T10081081
KOKM 151915Z AUTO 36015G25KT 10SM SCT024 OVC055 M01/M07 A3048 RMK AO2 T10121069
KOKM 151855Z AUTO 36017G24KT 10SM SCT024 OVC055 00/M06 A3047 RMK AO2 T10051065
KOKM 151835Z AUTO 01021G25KT 10SM SCT022 OVC055 00/M05 A3047 RMK AO2 T00011055
KOKM 151815Z AUTO 01022G26KT 10SM BKN020 OVC055 00/M05 A3046 RMK AO2 T00001046
KOKM 151755Z AUTO 01016G25KT 10SM BKN020 OVC049 00/M04 A3047 RMK AO2 T00041038 10036 21029
KOKM 151735Z AUTO 01019G26KT 10SM BKN020 BKN025 OVC048 01/M04 A3047 RMK AO2 T00111037
KOKM 151715Z AUTO 01017G22KT 10SM OVC018 01/M02 A3047 RMK AO2 T00131023
KOKM 151655Z AUTO 03017G25KT 10SM BKN016 OVC021 02/M02 A3047 RMK AO2 T00161025
KOKM 151635Z AUTO 01019G28KT 10SM BKN016 OVC021 02/M01 A3046 RMK AO2 T00191014
KOKM 151615Z AUTO 02016G25KT 10SM OVC020 03/00 A3044 RMK AO2 T00301005
KOKM 151555Z AUTO 02014G27KT 10SM BKN020 BKN024 OVC038 03/00 A3042 RMK AO2 T00331005
KOKM 151535Z AUTO 03011KT 10SM SCT018 BKN030 OVC036 03/00 A3040 RMK AO2 T00331004
KOKM 151515Z AUTO 03011KT 10SM SCT018 OVC032 03/M01 A3039 RMK AO2 T00281007
KOKM 151455Z AUTO 03011G14KT 10SM OVC030 02/M02 A3037 RMK AO2 T00221018
KOKM 151435Z AUTO 03008KT 10SM BKN028 01/M03 A3036 RMK AO2 T00101033
KOKM 151415Z AUTO 01009KT 10SM BKN026 M01/M04 A3035 RMK AO2 T10061042
KOKM 151355Z AUTO 01007KT 10SM CLR M02/M05 A3033 RMK AO2 T10251049
KOKM 151335Z AUTO 36006KT 10SM CLR M02/M05 A3032 RMK AO2 T10231054
KOKM 151315Z AUTO 01005KT 10SM CLR M02/M06 A3032 RMK AO2 T10251057
KOKM 151255Z AUTO 03003KT 10SM SCT090 M02/M06 A3031 RMK AO2 T10251056
KOKM 151235Z AUTO 10008KT 10SM SCT090 M03/M05 A3030 RMK AO2 T10271054
KOKM 151215Z AUTO 21003KT 10SM CLR 00/M05 A3030 RMK AO2 T00001053
KOKM 151155Z AUTO 00000KT 10SM CLR 00/M05 A3030 RMK AO2 T00001053 10019 21010
KOKM 151135Z AUTO 35008G16KT 10SM CLR 00/M05 A3029 RMK AO2 T00011052
KOKM 151115Z AUTO 35017KT 10SM CLR M01/M06 A3026 RMK AO2 T10061057